Hualapai Flat, Nevada Weather observations

Data are for 10 minute period ending at time listed.
 Day   Time   Solar   Ave.   Ave.  Ave.  Vector  Max.   Baro.   Total    
  of    of     Rad.   Air    Rel.  Wind   Wind   Wind  Press.  Precip.   
Year   Day            Temp.  Hum.  Speed  Dir.   Gust                    
2015   (PST)  Kw/m2    F      %     mph   deg.    mph    mb.     in.     
-------------------------------------------------------------------------
  25   21:30   0.00   35.3    78    7.4   287     9.4   884.0    0.00 
  25   21:40   0.00   36.4    75    6.0   305     8.3   884.0    0.00 
  25   21:50   0.00   35.7    76    6.4   324     7.5   884.1    0.00 
  25   22:00   0.00   36.4    74    6.1   320     6.7   884.1    0.00 
  25   22:10   0.00   35.6    76    6.1   298     8.3   884.1    0.00 
  25   22:20   0.00   35.1    77    8.3   285    10.2   884.2    0.00 
  25   22:30   0.00   35.7    79    7.4   292     9.0   884.2    0.00 
  25   22:40   0.00   35.8    75    5.2   335     7.5   884.1    0.00 
  25   22:50   0.00   33.6    79    3.6   332     5.7   884.1    0.00 
  25   23:00   0.00   34.4    79    5.1   336     6.2   884.0    0.00 
  25   23:10   0.00   32.9    79    3.4   331     5.4   883.9    0.00 
  25   23:20   0.00   33.0    82    5.8   299     7.0   884.0    0.00 
  25   23:30   0.00   33.8    81    5.6   290     6.4   883.9    0.00 
  25   23:40   0.00   36.9    78    5.1   288     6.8   883.9    0.00 
  25   23:50   0.00   37.6    73    4.2   296     7.7   883.8    0.00 
  26    0:00   0.00   33.5    78    2.2   314     4.5   883.6    0.00 
  26    0:10   0.00   32.7    82    2.8   276     4.6   883.7    0.00 
  26    0:20   0.00   33.4    81    3.4   281     4.7   883.5    0.00 
  26    0:30   0.00   33.0    82    5.2   291     6.3   883.6    0.00 
  26    0:40   0.00   33.5    82    4.4   306     5.3   883.5    0.00 
  26    0:50   0.00   34.2    79    5.1   326     5.9   883.3    0.00 
  26    1:00   0.00   33.9    79    5.4   303     7.1   883.3    0.00 
  26    1:10   0.00   34.5    80    2.8   326     4.3   883.1    0.00 
  26    1:20   0.00   32.4    81    5.4   304     7.6   883.0    0.00 
  26    1:30   0.00   32.3    84    5.0   294     6.7   883.1    0.00 
  26    1:40   0.00   32.2    84    5.9   300     7.1   883.1    0.00 
  26    1:50   0.00   31.5    85    5.5   309     7.0   883.0    0.00 
  26    2:00   0.00   31.3    86    5.2   339     6.3   883.0    0.00 
  26    2:10   0.00   32.5    86    6.4   326     7.2   883.0    0.00 
  26    2:20   0.00   32.4    85    7.4   333     8.6   882.9    0.00 
  26    2:30   0.00   33.2    83    6.7   310     8.0   882.9    0.00 
  26    2:40   0.00   32.4    85    7.0   308     8.2   882.7    0.00 
  26    2:50   0.00   32.8    84    7.4   298     8.6   882.5    0.00 
  26    3:00   0.00   33.1    85    7.8   287     8.7   882.4    0.00 
  26    3:10   0.00   34.7    82    8.2   287     9.6   882.3    0.00 
  26    3:20   0.00   34.4    83    5.7   315     8.5   882.3    0.00 
  26    3:30   0.00   33.3    83    4.3   348     6.1   882.3    0.00 
  26    3:40   0.00   33.9    83    2.4   330     4.0   882.2    0.00 
  26    3:50   0.00   33.3    83    3.2   274     4.2   882.1    0.00 
  26    4:00   0.00   33.1    84    6.1   254     7.1   882.1    0.00 
  26    4:10   0.00   32.7    84    4.6   234     6.1   882.2    0.00 
  26    4:20   0.00   32.1    84    4.9   213     5.8   882.1    0.00 
  26    4:30   0.00   30.5    84    4.4   188     5.8   882.2    0.00 
  26    4:40   0.00   28.1    87    4.9   206     5.6   882.2    0.00 
  26    4:50   0.00   29.4    90    4.9   235     6.2   882.0    0.00 
  26    5:00   0.00   31.3    88    4.5   252     5.3   881.9    0.00 
  26    5:10   0.00   32.9    86    3.0   229     4.9   881.9    0.00 
  26    5:20   0.00   34.2    83    2.3   233     4.5   881.9    0.00 
  26    5:30   0.00   30.5    84    3.9   329     4.7   881.9    0.00 
  26    5:40   0.00   30.5    88    3.2   310     5.0   881.8    0.00 
  26    5:50   0.00   30.0    89    3.9   299     4.8   881.7    0.00 
  26    6:00   0.00   30.5    84    3.8   349     4.9   881.7    0.00 
  26    6:10   0.00   27.8    89    4.7   320     6.1   881.6    0.00 
  26    6:20   0.00   28.6    91    5.5   319     6.7   881.6    0.00 
  26    6:30   0.00   29.9    89    5.6   325     6.2   881.6    0.00 
  26    6:40   0.00   28.7    88    5.6   297     6.1   881.6    0.00 
  26    6:50   0.00   27.0    91    6.0   279     6.7   881.5    0.00 
  26    7:00   0.00   27.6    92    5.7   291     6.6   881.5    0.00 
  26    7:10   0.00   27.7    90    3.8   354     5.8   881.5    0.00 
  26    7:20   0.01   25.7    90    2.1    16     3.8   881.5    0.00 
  26    7:30   0.02   26.2    92    0.5    19     1.5   881.5    0.00 
  26    7:40   0.05   28.4    92    1.1   306     2.1   881.5    0.00 
  26    7:50   0.08   30.1    90    1.9   336     2.6   881.5    0.00 
  26    8:00   0.10   30.3    89    3.3   313     4.1   881.5    0.00 
  26    8:10   0.13   31.7    88    4.3   307     5.8   881.3    0.00 
  26    8:20   0.15   33.2    87    4.2   300     5.4   881.3    0.00 
  26    8:30   0.18   35.3    86    2.9   329     3.8   881.2    0.00 
  26    8:40   0.21   36.8    85    2.4   356     3.2   881.1    0.00 
  26    8:50   0.23   38.2    83    2.4    11     3.1   881.0    0.00 
  26    9:00   0.26   39.8    80    2.1    14     3.1   880.9    0.00 
  26    9:10   0.28   40.8    77    2.1    39     3.4   880.8    0.00 
  26    9:20   0.30   41.4    76    1.5    40     2.7   880.9    0.00 
  26    9:30   0.33   42.7    74    1.1    62     2.2   880.9    0.00 
  26    9:40   0.35   44.2    70    1.5   101     2.8   881.0    0.00 
  26    9:50   0.36   46.6    65    2.4   144     4.0   881.0    0.00 
  26   10:00   0.38   47.6    61    3.0   153     4.5   881.1    0.00 
  26   10:10   0.40   47.7    59    3.4   154     5.4   881.1    0.00 
  26   10:20   0.42   49.9    57    3.8   181     6.0   881.0    0.00 
  26   10:30   0.43   50.6    54    3.7   173     5.5   881.0    0.00 
  26   10:40   0.44   50.2    54    3.5   161     5.0   881.0    0.00 
  26   10:50   0.45   50.6    53    3.7   157     6.1   881.0    0.00 
  26   11:00   0.45   50.8    52    3.6   157     5.5   880.9    0.00 
  26   11:10   0.49   50.6    52    4.2   144     6.2   880.8    0.00 
  26   11:20   0.47   51.3    51    4.3   148     6.9   880.7    0.00 
  26   11:30   0.48   52.2    49    4.0   152     6.0   880.5    0.00 
  26   11:40   0.50   53.2    48    3.4   148     5.7   880.4    0.00 
  26   11:50   0.49   54.1    47    3.3   148     5.3   880.2    0.00 
  26   12:00   0.50   54.2    47    3.8   145     6.1   880.1    0.00 
  26   12:10   0.47   54.7    46    3.5   130     6.6   879.9    0.00 
  26   12:20   0.51   54.2    47    4.1   123     6.9   879.7    0.00 
  26   12:30   0.51   55.2    45    4.1   125     7.0   879.7    0.00 
  26   12:40   0.50   55.1    45    5.3   129     7.5   879.4    0.00 
  26   12:50   0.50   55.8    44    3.7   125     6.6   879.2    0.00 
  26   13:00   0.50   56.6    43    3.8   140     6.6   879.1    0.00 
  26   13:10   0.48   59.6    39    3.0   179     5.6   878.9    0.00 
  26   13:20   0.45   58.8    39    3.3   135     5.6   878.7    0.00 
  26   13:30   0.45   58.9    40    3.6   154     6.1   878.6    0.00 
  26   13:40   0.46   60.1    38    4.8   150     8.3   878.5    0.00 
  26   13:50   0.39   58.9    39    4.8   125     7.7   878.3    0.00 
  26   14:00   0.36   57.7    41    4.6   127     6.6   878.3    0.00 
  26   14:10   0.28   59.0    39    5.0   152     7.6   878.2    0.00 
  26   14:20   0.35   58.0    41    4.8   144     6.7   878.0    0.00 
  26   14:30   0.37   58.4    40    5.5   132     8.4   878.0    0.00 
  26   14:40   0.26   57.8    41    5.6   137     8.2   877.9    0.00 
  26   14:50   0.17   57.4    42    5.8   150     7.5   877.9    0.00 
  26   15:00   0.21   56.8    44    5.8   157     7.5   877.8    0.00 
  26   15:10   0.15   57.6    43    4.9   168     6.4   877.8    0.00 
  26   15:20   0.13   57.0    44    5.1   166     6.3   877.6    0.00 
  26   15:30   0.12   55.9    46    5.1   161     5.9   877.5    0.00 
  26   15:40   0.23   55.9    46    4.9   157     6.6   877.3    0.00 
  26   15:50   0.27   58.0    40    6.1   157     8.3   877.2    0.00 
  26   16:00   0.22   58.2    40    5.9   148     7.6   877.2    0.00 
  26   16:10   0.14   56.7    42    5.9   136     8.2   877.1    0.00 
  26   16:20   0.09   55.3    45    5.0   135     7.6   877.1    0.00 
  26   16:30   0.07   54.2    48    3.6   143     4.7   877.1    0.00 
  26   16:40   0.04   53.0    50    3.4   138     3.9   877.0    0.00 
  26   16:50   0.02   52.0    50    2.6   116     3.7   877.0    0.00 
  26   17:00   0.01   50.8    52    0.5   134     1.2   876.9    0.00 
  26   17:10   0.01   50.1    54    0.5    69     1.0   876.8    0.00 
  26   17:20   0.00   50.0    54    1.7   344     2.4   876.7    0.00 
  26   17:30   0.00   50.0    54    2.7   339     6.1   876.6    0.00 
  26   17:40   0.00   49.1    55    0.9    10     3.9   876.6    0.00 
  26   17:50   0.00   49.6    54    2.9   333     3.8   876.6    0.00 
  26   18:00   0.00   47.4    57    4.6   310     5.9   876.6    0.00 
  26   18:10   0.00   45.6    61    4.9   323     5.5   876.6    0.00 
  26   18:20   0.00   45.5    60    4.5   302     6.2   876.7    0.00 
  26   18:30   0.00   41.9    66    5.5   287     6.4   876.7    0.00 
  26   18:40   0.00   41.0    68    6.8   285     7.1   876.7    0.00 
  26   18:50   0.00   41.8    66    6.3   292     7.2   876.6    0.00 
  26   19:00   0.00   42.2    64    6.7   290     8.1   876.5    0.00 
  26   19:10   0.00   40.9    68    7.3   290     9.1   876.5    0.00 
  26   19:20   0.00   41.7    65    7.6   293     8.8   876.4    0.00 
  26   19:30   0.00   41.5    66    5.7   322     8.9   876.5    0.00 
  26   19:40   0.00   41.3    68    5.8   304     7.5   876.4    0.00 
  26   19:50   0.00   40.5    69    5.2   312     6.0   876.3    0.00 
  26   20:00   0.00   39.6    70    5.8   301     6.6   876.2    0.00 
  26   20:10   0.00   38.7    72    5.6   314     6.9   876.2    0.00 
  26   20:20   0.00   38.9    73    6.1   298     6.9   876.2    0.00 
  26   20:30   0.00   39.1    72    6.6   291     7.4   876.1    0.00 
  26   20:40   0.00   38.6    72    7.3   285     8.1   876.2    0.00 
  26   20:50   0.00   37.4    73    7.6   283     8.9   876.2    0.00 
  26   21:00   0.00   38.6    70    7.3   289     9.2   876.2    0.00 
  26   21:10   0.00   37.9    72    5.7   342     6.9   876.3    0.00 
  26   21:20   0.00   38.3    72    5.0   323     7.3   876.2    0.00 

Return to Hualapai Flat graphs page.


Western Regional Climate Center,wrcc@dri.edu